createdAt,value
2019-02-05T00:01:51.622Z,3.52
2019-02-05T00:04:27.215Z,3.60
2019-02-05T00:06:57.918Z,4.58
2019-02-05T00:09:27.525Z,5.10
2019-02-05T00:11:57.142Z,4.67
2019-02-05T00:14:27.119Z,4.10
2019-02-05T00:16:56.809Z,4.67
2019-02-05T00:19:26.424Z,6.08
2019-02-05T00:21:56.058Z,6.45
2019-02-05T00:24:25.669Z,4.80
2019-02-05T00:26:57.683Z,4.83
2019-02-05T00:29:27.296Z,5.67
2019-02-05T00:31:56.907Z,5.72
2019-02-05T00:34:26.531Z,3.80
2019-02-05T00:36:56.144Z,5.85
2019-02-05T00:39:25.767Z,6.28
2019-02-05T00:41:55.651Z,5.87
2019-02-05T00:44:25.266Z,6.30
2019-02-05T00:46:54.961Z,6.05
2019-02-05T00:49:24.587Z,5.20
2019-02-05T00:51:57.143Z,5.22
2019-02-05T00:54:26.768Z,4.67
2019-02-05T00:56:56.397Z,6.40
2019-02-05T00:59:25.999Z,6.30
2019-02-05T01:01:58.252Z,6.53
2019-02-05T01:04:31.363Z,5.22
2019-02-05T01:07:01.042Z,5.40
2019-02-05T01:09:31.027Z,5.25
2019-02-05T01:12:00.707Z,6.67
2019-02-05T01:14:36.149Z,7.90
2019-02-05T01:17:06.749Z,6.35
2019-02-05T01:19:36.439Z,4.08
2019-02-05T01:22:06.512Z,5.75
2019-02-05T01:24:36.196Z,5.75
2019-02-05T01:27:06.947Z,4.83
2019-02-05T01:29:36.582Z,5.08
2019-02-05T01:32:06.195Z,7.53
2019-02-05T01:34:37.669Z,5.03
2019-02-05T01:37:07.271Z,5.17
2019-02-05T01:39:36.891Z,4.90
2019-02-05T01:42:08.508Z,5.75
2019-02-05T01:44:39.306Z,6.22
2019-02-05T01:47:09.001Z,7.70
2019-02-05T01:49:38.885Z,4.92
2019-02-05T01:52:08.502Z,4.15
2019-02-05T01:54:38.119Z,5.60
2019-02-05T01:57:07.824Z,4.22
2019-02-05T01:59:37.482Z,7.55
2019-02-05T02:02:07.240Z,5.70
2019-02-05T02:04:36.943Z,5.47
2019-02-05T02:07:07.011Z,4.75
2019-02-05T02:09:36.774Z,5.90
2019-02-05T02:12:06.538Z,5.72
2019-02-05T02:14:37.338Z,5.30
2019-02-05T02:17:07.019Z,6.47
2019-02-05T02:19:36.750Z,7.05
2019-02-05T02:22:06.504Z,7.17
2019-02-05T02:24:38.679Z,6.97
2019-02-05T02:27:08.309Z,5.17
2019-02-05T02:29:37.971Z,5.17
2019-02-05T02:32:10.870Z,7.85
2019-02-05T02:34:40.487Z,7.37
2019-02-05T02:37:11.721Z,6.55
2019-02-05T02:39:41.338Z,7.10
2019-02-05T02:42:13.305Z,7.65
2019-02-05T02:44:49.447Z,6.70
2019-02-05T02:47:19.144Z,8.15
2019-02-05T02:49:51.840Z,6.60
2019-02-05T02:52:25.638Z,10.80
2019-02-05T02:54:55.244Z,6.95
2019-02-05T02:57:25.237Z,9.15
2019-02-05T02:59:54.934Z,6.55
2019-02-05T03:02:24.544Z,9.68
2019-02-05T03:04:54.158Z,6.33
2019-02-05T03:07:23.846Z,5.85
2019-02-05T03:09:53.471Z,4.67
2019-02-05T03:12:23.341Z,7.28
2019-02-05T03:14:56.089Z,5.12
2019-02-05T03:17:25.699Z,6.05
2019-02-05T03:19:56.925Z,6.20
2019-02-05T03:22:26.549Z,7.67
2019-02-05T03:24:56.155Z,6.92
2019-02-05T03:27:27.587Z,6.47
2019-02-05T03:29:58.734Z,9.20
2019-02-05T03:32:29.965Z,13.32
2019-02-05T03:34:59.660Z,6.72
2019-02-05T03:37:29.257Z,9.45
2019-02-05T03:39:58.944Z,8.30
2019-02-05T03:42:28.651Z,6.95
2019-02-05T03:44:58.551Z,7.08
2019-02-05T03:47:29.017Z,7.90
2019-02-05T03:49:58.819Z,6.60
2019-02-05T03:52:39.172Z,8.68
2019-02-05T03:55:50.978Z,9.18
2019-02-05T03:58:43.867Z,5.40
2019-02-05T04:01:57.963Z,7.53
2019-02-05T04:05:18.560Z,9.53
2019-02-05T04:08:11.750Z,7.40
2019-02-05T04:11:08.700Z,7.97
2019-02-05T04:14:15.731Z,7.00
2019-02-05T04:17:11.009Z,8.40
2019-02-05T04:20:31.409Z,7.78
2019-02-05T04:23:36.212Z,6.78
2019-02-05T04:26:16.493Z,8.80
2019-02-05T04:29:18.817Z,7.22
2019-02-05T04:32:21.263Z,6.50
2019-02-05T04:35:34.550Z,6.80
2019-02-05T04:38:45.249Z,7.60
2019-02-05T04:41:25.711Z,10.00
2019-02-05T04:44:21.810Z,11.48
2019-02-05T04:47:16.731Z,8.53
2019-02-05T04:49:57.210Z,6.87
2019-02-05T04:53:10.269Z,9.63
2019-02-05T04:56:18.857Z,9.50
2019-02-05T04:59:27.173Z,9.23
2019-02-05T05:02:15.751Z,8.93
2019-02-05T05:05:25.689Z,7.95
2019-02-05T05:08:20.683Z,7.30
2019-02-05T05:10:50.298Z,7.78
2019-02-05T05:13:19.992Z,10.05
2019-02-05T05:15:49.985Z,5.35
2019-02-05T05:18:21.235Z,9.23
2019-02-05T05:20:52.308Z,8.83
2019-02-05T05:23:22.325Z,6.35
2019-02-05T05:25:52.378Z,6.85
2019-02-05T05:28:22.158Z,7.45
2019-02-05T05:30:53.590Z,8.90
2019-02-05T05:33:23.289Z,7.50
2019-02-05T05:35:54.675Z,7.78
2019-02-05T05:38:24.276Z,6.05
2019-02-05T05:40:54.956Z,6.92
2019-02-05T05:43:24.574Z,9.23
2019-02-05T05:45:54.481Z,8.35
2019-02-05T05:48:24.116Z,8.88
2019-02-05T05:50:58.427Z,8.63
2019-02-05T05:53:28.057Z,8.33
2019-02-05T05:55:57.762Z,9.08
2019-02-05T05:58:27.387Z,8.30
2019-02-05T06:00:57.466Z,7.05
2019-02-05T06:03:27.107Z,9.53
2019-02-05T06:05:58.574Z,7.75
2019-02-05T06:08:33.884Z,7.83
2019-02-05T06:11:03.581Z,7.75
2019-02-05T06:13:33.285Z,7.35
2019-02-05T06:16:05.874Z,8.75
2019-02-05T06:18:36.628Z,10.00
2019-02-05T06:21:06.258Z,11.00
2019-02-05T06:23:35.955Z,10.95
2019-02-05T06:26:05.642Z,8.88
2019-02-05T06:28:35.359Z,8.93
2019-02-05T06:31:05.047Z,9.28
2019-02-05T06:33:34.752Z,10.55
2019-02-05T06:36:04.520Z,11.08
2019-02-05T06:38:36.464Z,10.40
2019-02-05T06:41:06.152Z,10.50
2019-02-05T06:43:35.838Z,7.20
2019-02-05T06:46:05.671Z,7.45
2019-02-05T06:48:35.280Z,9.25
2019-02-05T06:51:04.986Z,6.00
2019-02-05T06:53:34.699Z,9.40
2019-02-05T06:56:04.671Z,6.72
2019-02-05T06:58:45.740Z,10.55
2019-02-05T07:01:05.702Z,8.63
2019-02-05T07:03:35.466Z,9.30
2019-02-05T07:06:05.412Z,9.05
2019-02-05T07:08:35.227Z,9.58
2019-02-05T07:11:05.129Z,10.15
2019-02-05T07:13:34.887Z,8.20
2019-02-05T07:16:04.902Z,6.00
2019-02-05T07:18:38.565Z,8.38
2019-02-05T07:21:08.374Z,6.72
2019-02-05T07:23:38.226Z,6.40
2019-02-05T07:26:08.030Z,8.58
2019-02-05T07:28:38.975Z,8.10
2019-02-05T07:31:08.857Z,6.62
2019-02-05T07:33:38.620Z,9.05
2019-02-05T07:36:08.517Z,8.40
2019-02-05T07:38:43.454Z,10.10
2019-02-05T07:41:17.917Z,7.90
2019-02-05T07:43:49.685Z,7.30
2019-02-05T07:46:19.547Z,10.58
2019-02-05T07:48:49.299Z,8.60
2019-02-05T07:51:20.352Z,8.43
2019-02-05T07:53:51.714Z,9.18
2019-02-05T07:56:21.473Z,6.90
2019-02-05T07:58:51.238Z,9.28
2019-02-05T08:01:21.029Z,10.72
2019-02-05T08:03:50.774Z,9.33
2019-02-05T08:06:20.800Z,9.45
2019-02-05T08:08:50.564Z,7.75
2019-02-05T08:11:20.472Z,7.97
2019-02-05T08:13:50.246Z,9.70
2019-02-05T08:16:23.427Z,9.35
2019-02-05T08:18:53.534Z,10.85
2019-02-05T08:21:23.301Z,9.70
2019-02-05T08:23:53.048Z,9.83
2019-02-05T08:26:22.812Z,9.85
2019-02-05T08:28:55.578Z,8.90
2019-02-05T08:31:26.963Z,8.00
2019-02-05T08:33:56.710Z,7.85
2019-02-05T08:36:28.798Z,6.78
2019-02-05T08:38:58.604Z,7.35
2019-02-05T08:41:28.342Z,10.10
2019-02-05T08:43:59.707Z,6.58
2019-02-05T08:46:29.626Z,7.95
2019-02-05T08:48:59.400Z,7.72
2019-02-05T08:51:29.263Z,7.47
2019-02-05T08:54:00.281Z,8.75
2019-02-05T08:56:30.100Z,7.10
2019-02-05T08:58:59.856Z,9.35
2019-02-05T09:01:29.760Z,6.78
2019-02-05T09:04:02.315Z,5.62
2019-02-05T09:06:34.886Z,7.10
2019-02-05T09:09:05.373Z,6.33
2019-02-05T09:11:35.130Z,5.90
2019-02-05T09:14:11.486Z,7.87
2019-02-05T09:16:36.387Z,5.67
2019-02-05T09:19:06.261Z,7.53
2019-02-05T09:21:36.061Z,6.30
2019-02-05T09:24:06.061Z,5.35
2019-02-05T09:26:35.909Z,7.97
2019-02-05T09:29:06.063Z,5.10
2019-02-05T09:31:35.858Z,6.67
2019-02-05T09:34:05.750Z,8.05
2019-02-05T09:36:35.500Z,7.03
2019-02-05T09:39:08.068Z,4.60
2019-02-05T09:41:40.929Z,6.08
2019-02-05T09:44:10.412Z,6.45
2019-02-05T09:46:40.176Z,7.50
2019-02-05T09:49:10.130Z,7.22
2019-02-05T09:51:40.064Z,7.20
2019-02-05T09:54:09.872Z,6.83
2019-02-05T09:56:39.682Z,5.92
2019-02-05T09:59:09.419Z,7.00
2019-02-05T10:01:39.161Z,6.30
2019-02-05T10:04:13.621Z,7.92
2019-02-05T10:06:43.385Z,6.60
2019-02-05T10:09:13.138Z,8.03
2019-02-05T10:11:44.974Z,7.10
2019-02-05T10:14:16.354Z,8.15
2019-02-05T10:16:46.177Z,7.58
2019-02-05T10:19:16.011Z,6.50
2019-02-05T10:21:48.832Z,6.15
2019-02-05T10:24:31.107Z,7.03
2019-02-05T10:27:04.442Z,6.17
2019-02-05T10:29:37.713Z,7.33
2019-02-05T10:32:08.578Z,5.55
2019-02-05T10:34:38.456Z,4.95
2019-02-05T10:37:15.568Z,6.42
2019-02-05T10:39:45.391Z,5.25
2019-02-05T10:42:21.486Z,5.22
2019-02-05T10:44:51.292Z,4.80
2019-02-05T10:47:21.125Z,3.98
2019-02-05T10:49:51.296Z,5.37
2019-02-05T10:52:21.070Z,4.87
2019-02-05T10:54:50.836Z,5.20
2019-02-05T10:57:21.053Z,6.05
2019-02-05T10:59:54.358Z,7.50
2019-02-05T11:02:23.186Z,5.53
2019-02-05T11:04:52.930Z,4.97
2019-02-05T11:07:25.306Z,4.25
2019-02-05T11:09:57.339Z,7.40
2019-02-05T11:12:27.276Z,5.53
2019-02-05T11:14:57.006Z,5.30
2019-02-05T11:17:26.794Z,9.00
2019-02-05T11:20:02.101Z,8.08
2019-02-05T11:22:37.662Z,6.72
2019-02-05T11:25:08.036Z,5.55
2019-02-05T11:27:37.871Z,6.65
2019-02-05T11:30:20.325Z,9.20
2019-02-05T11:32:47.976Z,8.18
2019-02-05T11:35:19.097Z,7.00
2019-02-05T11:37:49.216Z,7.78
2019-02-05T11:40:24.832Z,7.95
2019-02-05T11:42:54.582Z,7.53
2019-02-05T11:45:24.487Z,6.60
2019-02-05T11:47:56.718Z,6.55
2019-02-05T11:50:33.981Z,7.80
2019-02-05T11:53:03.857Z,5.42
2019-02-05T11:55:33.677Z,8.93
2019-02-05T11:58:03.961Z,6.45
2019-02-05T12:00:40.592Z,6.83
2019-02-05T12:03:11.785Z,6.60
2019-02-05T12:05:41.820Z,8.23
2019-02-05T12:08:11.826Z,6.90
2019-02-05T12:10:42.621Z,7.00
2019-02-05T12:13:12.349Z,7.17
2019-02-05T12:15:42.259Z,5.42
2019-02-05T12:18:12.077Z,6.25
2019-02-05T12:20:45.035Z,5.72
2019-02-05T12:23:14.845Z,5.53
2019-02-05T12:25:44.687Z,5.70
2019-02-05T12:28:14.442Z,4.87
2019-02-05T12:30:45.617Z,6.78
2019-02-05T12:33:15.584Z,5.60
2019-02-05T12:35:45.924Z,5.42
2019-02-05T12:38:15.740Z,6.05
2019-02-05T12:40:45.692Z,7.40
2019-02-05T12:43:15.504Z,7.47
2019-02-05T12:45:46.082Z,6.03
2019-02-05T12:48:18.278Z,7.47
2019-02-05T12:50:48.442Z,6.28
2019-02-05T12:53:18.273Z,5.50
2019-02-05T12:55:49.375Z,6.75
2019-02-05T12:58:20.751Z,7.97
2019-02-05T13:00:59.223Z,6.55
2019-02-05T13:03:25.937Z,5.58
2019-02-05T13:05:55.780Z,7.40
2019-02-05T13:08:27.346Z,7.75
2019-02-05T13:10:57.253Z,8.28
2019-02-05T13:13:27.077Z,10.58
2019-02-05T13:15:57.105Z,8.58
2019-02-05T13:18:26.788Z,11.10
2019-02-05T13:20:56.552Z,9.00
2019-02-05T13:23:29.154Z,7.60
2019-02-05T13:25:59.005Z,7.05
2019-02-05T13:28:28.846Z,7.62
2019-02-05T13:31:07.794Z,5.10
2019-02-05T13:33:33.592Z,7.35
2019-02-05T13:36:04.429Z,8.08
2019-02-05T13:38:34.097Z,7.08
2019-02-05T13:41:05.384Z,7.28
2019-02-05T13:43:35.783Z,6.17
2019-02-05T13:46:06.205Z,7.30
2019-02-05T13:48:36.009Z,5.65
2019-02-05T13:51:06.070Z,5.97
2019-02-05T13:53:37.953Z,7.35
2019-02-05T13:56:08.092Z,7.42
2019-02-05T13:58:37.754Z,7.55
2019-02-05T14:01:19.301Z,5.65
2019-02-05T14:03:39.042Z,8.10
2019-02-05T14:06:08.791Z,8.35
2019-02-05T14:08:38.530Z,8.05
2019-02-05T14:11:08.296Z,6.67
2019-02-05T14:13:38.196Z,7.40
2019-02-05T14:16:08.007Z,7.83
2019-02-05T14:18:37.787Z,6.67
2019-02-05T14:21:07.448Z,8.55
2019-02-05T14:23:37.203Z,7.72
2019-02-05T14:26:07.031Z,8.35
2019-02-05T14:28:36.800Z,7.10
2019-02-05T14:31:09.692Z,6.12
2019-02-05T14:33:39.377Z,6.45
2019-02-05T14:36:09.119Z,6.25
2019-02-05T14:38:38.900Z,7.72
2019-02-05T14:41:09.145Z,6.62
2019-02-05T14:43:38.881Z,7.90
2019-02-05T14:46:08.641Z,6.20
2019-02-05T14:48:39.458Z,5.55
2019-02-05T14:51:11.924Z,7.37
2019-02-05T14:53:41.718Z,7.62
2019-02-05T14:56:13.907Z,7.35
2019-02-05T14:58:43.670Z,7.12
2019-02-05T15:01:13.487Z,5.83
2019-02-05T15:03:43.225Z,5.50
2019-02-05T15:06:13.053Z,7.45
2019-02-05T15:08:44.162Z,7.55
2019-02-05T15:11:13.863Z,6.53
2019-02-05T15:13:43.677Z,6.12
2019-02-05T15:16:13.358Z,7.25
2019-02-05T15:18:46.162Z,8.10
2019-02-05T15:21:17.551Z,9.30
2019-02-05T15:23:49.951Z,5.70
2019-02-05T15:26:19.697Z,8.33
2019-02-05T15:28:49.454Z,8.75
2019-02-05T15:31:19.201Z,9.05
2019-02-05T15:34:00.575Z,6.65
2019-02-05T15:36:32.032Z,7.03
2019-02-05T15:39:01.902Z,6.05
2019-02-05T15:41:33.323Z,8.18
2019-02-05T15:44:03.077Z,8.75
2019-02-05T15:46:33.896Z,7.17
2019-02-05T15:49:03.810Z,7.12
2019-02-05T15:51:33.532Z,7.92
2019-02-05T15:54:05.087Z,7.78
2019-02-05T15:56:37.772Z,9.05
2019-02-05T15:59:07.803Z,7.10
2019-02-05T16:01:37.557Z,8.10
2019-02-05T16:04:07.451Z,6.70
2019-02-05T16:06:37.410Z,5.75
2019-02-05T16:09:08.832Z,6.35
2019-02-05T16:11:38.693Z,6.47
2019-02-05T16:14:10.028Z,5.40
2019-02-05T16:16:39.783Z,5.00
2019-02-05T16:19:09.536Z,6.47
2019-02-05T16:21:39.307Z,5.03
2019-02-05T16:24:10.265Z,6.78
2019-02-05T16:26:44.637Z,7.30
2019-02-05T16:29:16.109Z,6.95
2019-02-05T16:31:45.786Z,7.25
2019-02-05T16:34:15.469Z,6.45
2019-02-05T16:36:45.279Z,6.50
2019-02-05T16:39:15.103Z,7.37
2019-02-05T16:41:45.229Z,6.30
2019-02-05T16:44:19.918Z,9.53
2019-02-05T16:46:49.684Z,5.72
2019-02-05T16:49:22.307Z,7.62
2019-02-05T16:51:50.869Z,5.83
2019-02-05T16:54:21.989Z,6.58
2019-02-05T16:56:52.465Z,6.75
2019-02-05T16:59:22.162Z,8.30
2019-02-05T17:01:52.046Z,8.98
2019-02-05T17:04:21.815Z,8.13
2019-02-05T17:06:51.611Z,11.20
2019-02-05T17:09:21.611Z,8.28
2019-02-05T17:11:51.435Z,10.63
2019-02-05T17:14:21.195Z,10.23
2019-02-05T17:16:51.011Z,9.43
2019-02-05T17:19:22.495Z,10.78
2019-02-05T17:21:52.268Z,14.10
2019-02-05T17:24:22.065Z,12.82
2019-02-05T17:26:51.885Z,13.80
2019-02-05T17:29:22.053Z,12.20
2019-02-05T17:31:54.599Z,11.65
2019-02-05T17:34:25.984Z,11.38
2019-02-05T17:36:56.054Z,12.20
2019-02-05T17:39:28.433Z,9.93
2019-02-05T17:41:59.733Z,12.50
2019-02-05T17:44:29.489Z,9.93
2019-02-05T17:46:59.254Z,13.22
2019-02-05T17:49:31.944Z,12.35
2019-02-05T17:52:01.699Z,11.95
2019-02-05T17:54:31.547Z,11.70
2019-02-05T17:57:02.581Z,10.32
2019-02-05T17:59:37.363Z,10.35
2019-02-05T18:02:07.908Z,10.82
2019-02-05T18:04:37.775Z,11.38
2019-02-05T18:07:07.629Z,9.85
2019-02-05T18:09:37.447Z,10.43
2019-02-05T18:12:07.208Z,12.30
2019-02-05T18:14:37.001Z,14.70
2019-02-05T18:17:07.133Z,10.45
2019-02-05T18:19:36.801Z,14.40
2019-02-05T18:22:08.018Z,16.73
2019-02-05T18:24:39.229Z,13.60
2019-02-05T18:27:08.980Z,14.73
2019-02-05T18:29:38.813Z,14.53
2019-02-05T18:32:08.591Z,13.98
2019-02-05T18:34:45.162Z,14.68
2019-02-05T18:37:17.876Z,12.85
2019-02-05T18:39:47.621Z,14.25
2019-02-05T18:42:17.353Z,12.82
2019-02-05T18:44:49.038Z,14.23
2019-02-05T18:47:18.751Z,11.63
2019-02-05T18:49:48.533Z,12.23
2019-02-05T18:52:18.328Z,13.25
2019-02-05T18:54:48.081Z,11.85
2019-02-05T18:57:19.637Z,9.55
2019-02-05T18:59:49.390Z,11.20
2019-02-05T19:02:19.085Z,13.03
2019-02-05T19:04:48.841Z,10.93
2019-02-05T19:07:18.662Z,12.73
2019-02-05T19:09:48.408Z,12.70
2019-02-05T19:12:19.721Z,13.38
2019-02-05T19:14:49.487Z,9.63
2019-02-05T19:17:19.248Z,11.68
2019-02-05T19:19:49.052Z,10.63
2019-02-05T19:22:18.886Z,13.28
2019-02-05T19:25:04.904Z,11.70
2019-02-05T19:27:34.681Z,11.40
2019-02-05T19:30:06.804Z,10.35
2019-02-05T19:32:36.596Z,11.57
2019-02-05T19:35:06.518Z,14.10
2019-02-05T19:37:36.503Z,12.37
2019-02-05T19:40:06.932Z,12.50
2019-02-05T19:42:36.779Z,12.13
2019-02-05T19:45:31.912Z,11.93
2019-02-05T19:48:03.975Z,10.85
2019-02-05T19:50:33.744Z,13.22
2019-02-05T19:53:03.565Z,15.85
2019-02-05T19:55:34.287Z,13.15
2019-02-05T19:58:04.194Z,14.00
2019-02-05T20:00:34.044Z,11.73
2019-02-05T20:03:03.990Z,15.08
2019-02-05T20:05:36.156Z,12.63
2019-02-05T20:08:11.401Z,12.13
2019-02-05T20:10:41.176Z,7.75
2019-02-05T20:13:11.176Z,11.33
2019-02-05T20:15:40.979Z,8.98
2019-02-05T20:18:10.833Z,9.65
2019-02-05T20:20:40.605Z,10.05
2019-02-05T20:23:10.350Z,8.95
2019-02-05T20:25:40.120Z,11.28
2019-02-05T20:28:09.853Z,8.10
2019-02-05T20:30:39.605Z,8.80
2019-02-05T20:33:09.457Z,9.50
2019-02-05T20:35:39.143Z,10.30
2019-02-05T20:38:08.837Z,10.03
2019-02-05T20:40:38.639Z,9.18
2019-02-05T20:43:08.328Z,9.50
2019-02-05T20:45:38.248Z,6.65
2019-02-05T20:48:08.093Z,8.83
2019-02-05T20:50:38.274Z,8.65
2019-02-05T20:53:14.041Z,9.65
2019-02-05T20:55:40.430Z,7.28
2019-02-05T20:58:10.260Z,8.70
2019-02-05T21:00:40.026Z,9.40
2019-02-05T21:03:09.905Z,10.23
2019-02-05T21:05:42.830Z,8.80
2019-02-05T21:08:12.512Z,9.55
2019-02-05T21:10:47.791Z,8.80
2019-02-05T21:13:17.625Z,8.63
2019-02-05T21:15:47.449Z,9.28
2019-02-05T21:18:18.809Z,11.43
2019-02-05T21:20:48.481Z,8.20
2019-02-05T21:23:18.238Z,8.50
2019-02-05T21:25:48.089Z,8.80
2019-02-05T21:28:17.849Z,11.18
2019-02-05T21:30:47.530Z,9.70
2019-02-05T21:33:19.025Z,8.98
2019-02-05T21:35:48.629Z,9.98
2019-02-05T21:38:18.367Z,6.78
2019-02-05T21:40:48.101Z,9.68
2019-02-05T21:43:18.862Z,9.63
2019-02-05T21:45:48.618Z,8.20
2019-02-05T21:48:18.544Z,8.03
2019-02-05T21:50:49.451Z,7.72
2019-02-05T21:53:22.212Z,9.35
2019-02-05T21:55:51.996Z,9.03
2019-02-05T21:58:21.745Z,6.30
2019-02-05T22:00:53.765Z,9.65
2019-02-05T22:03:27.688Z,8.05
2019-02-05T22:05:59.062Z,6.10
2019-02-05T22:08:30.734Z,7.65
2019-02-05T22:11:00.707Z,8.05
2019-02-05T22:13:30.718Z,8.23
2019-02-05T22:16:00.482Z,6.67
2019-02-05T22:18:30.216Z,8.03
2019-02-05T22:21:00.038Z,10.80
2019-02-05T22:23:29.778Z,8.00
2019-02-05T22:26:00.073Z,6.67
2019-02-05T22:28:29.894Z,6.53
2019-02-05T22:30:59.972Z,8.70
2019-02-05T22:33:29.736Z,5.97
2019-02-05T22:35:59.893Z,6.28
2019-02-05T22:38:41.613Z,9.10
2019-02-05T22:41:11.429Z,7.12
2019-02-05T22:43:41.237Z,6.70
2019-02-05T22:46:10.993Z,6.53
2019-02-05T22:48:41.038Z,6.62
2019-02-05T22:51:11.968Z,7.60
2019-02-05T22:53:46.383Z,6.20
2019-02-05T22:56:16.132Z,7.40
2019-02-05T22:58:46.258Z,5.83
2019-02-05T23:01:47.244Z,5.35
2019-02-05T23:05:12.850Z,5.50
2019-02-05T23:07:42.683Z,5.92
2019-02-05T23:11:03.097Z,6.20
2019-02-05T23:13:27.511Z,7.25
2019-02-05T23:15:57.522Z,5.90
2019-02-05T23:18:27.288Z,6.58
2019-02-05T23:20:58.293Z,5.42
2019-02-05T23:23:29.685Z,6.28
2019-02-05T23:25:59.363Z,5.30
2019-02-05T23:28:31.004Z,5.83
2019-02-05T23:31:02.877Z,4.75
2019-02-05T23:33:32.491Z,5.37
2019-02-05T23:36:02.131Z,5.00
2019-02-05T23:38:31.743Z,6.12
2019-02-05T23:41:03.775Z,5.30
2019-02-05T23:43:33.747Z,6.12
2019-02-05T23:46:03.530Z,5.65
2019-02-05T23:48:33.170Z,5.10
2019-02-05T23:51:02.886Z,3.77
2019-02-05T23:53:32.597Z,4.30
2019-02-05T23:56:03.595Z,4.95
2019-02-05T23:58:33.467Z,5.45
